KFXY/FXY METAR and TAF weather

Enter ICAO airport designator
Station Type Date Time Source
KFXY METAR 2019/02/22 22:15 UTC NOAA

KFXY 222215Z AUTO 10008KT 10SM OVC070 M02/M08 A3025 RMK AO2


Station Type Date Time Source
KFXY Decoded METAR 2019/02/22 22:15 UTC NOAA

Station name not available
Feb 22, 2019 - 05:15 PM EST / 2019.02.22 2215 UTC
Wind: from the E (100 degrees) at 9 MPH (8 KT):0
Visibility: 10 mile(s):0
Sky conditions: overcast
Temperature: 28 F (-2 C)
Windchill: 19 F (-7 C):1
Dew Point: 17 F (-8 C)
Relative Humidity: 63%
Pressure (altimeter): 30.25 in. Hg (1024 hPa)
ob: KFXY 222215Z AUTO 10008KT 10SM OVC070 M02/M08 A3025 RMK AO2
cycle: 22

Station Type Date Time Source
KFXY TAF UTC NOAA

Error!


Example: see airport list